createdAt,value
2022-11-24T00:00:19.095Z,100035.16
2022-11-24T00:02:51.855Z,100035.66
2022-11-24T00:05:25.751Z,100025.13
2022-11-24T00:07:59.850Z,100030.94
2022-11-24T00:10:32.717Z,100029.47
2022-11-24T00:13:05.398Z,100032.47
2022-11-24T00:15:38.029Z,100030.16
2022-11-24T00:18:11.005Z,100041.50
2022-11-24T00:20:43.718Z,100043.06
2022-11-24T00:23:20.093Z,100037.25
2022-11-24T00:25:52.869Z,100035.34
2022-11-24T00:28:25.910Z,100032.22
2022-11-24T00:30:58.793Z,100048.19
2022-11-24T00:33:34.700Z,100043.84
2022-11-24T00:36:07.706Z,100039.94
2022-11-24T00:38:41.883Z,100043.13
2022-11-24T00:41:15.198Z,100047.03
2022-11-24T00:43:47.951Z,100055.94
2022-11-24T00:46:21.245Z,100058.66
2022-11-24T00:48:55.302Z,100061.72
2022-11-24T00:51:30.228Z,100058.25
2022-11-24T00:54:06.633Z,100056.31
2022-11-24T00:56:39.472Z,100054.41
2022-11-24T00:59:12.389Z,100057.94
2022-11-24T01:01:45.236Z,100051.66
2022-11-24T01:04:18.298Z,100057.16
2022-11-24T01:06:51.173Z,100058.25
2022-11-24T01:09:25.528Z,100052.78
2022-11-24T01:12:04.452Z,100056.25
2022-11-24T01:14:39.603Z,100061.34
2022-11-24T01:17:12.502Z,100057.00
2022-11-24T01:19:47.242Z,100076.50
2022-11-24T01:22:20.033Z,100083.56
2022-11-24T01:24:54.428Z,100086.34
2022-11-24T01:27:27.198Z,100086.75
2022-11-24T01:30:01.951Z,100093.81
2022-11-24T01:32:36.197Z,100095.72
2022-11-24T01:35:09.876Z,100089.88
2022-11-24T01:37:42.854Z,100101.66
2022-11-24T01:40:17.465Z,100106.22
2022-11-24T01:42:51.816Z,100110.97
2022-11-24T01:45:35.855Z,100114.09
2022-11-24T01:48:12.492Z,100116.44
2022-11-24T01:50:46.413Z,100118.00
2022-11-24T01:53:19.145Z,100120.66
2022-11-24T01:55:53.991Z,100113.38
2022-11-24T01:58:28.485Z,100120.69
2022-11-24T02:01:02.046Z,100133.63
2022-11-24T02:03:38.732Z,100143.84
2022-11-24T02:06:15.695Z,100143.84
2022-11-24T02:08:52.680Z,100143.47
2022-11-24T02:11:29.572Z,100145.78
2022-11-24T02:14:02.524Z,100143.06
2022-11-24T02:16:36.471Z,100141.50
2022-11-24T02:19:15.809Z,100143.00
2022-11-24T02:21:50.661Z,100139.13
2022-11-24T02:24:26.282Z,100132.06
2022-11-24T02:27:00.550Z,100144.91
2022-11-24T02:29:33.556Z,100141.78
2022-11-24T02:32:07.853Z,100141.38
2022-11-24T02:34:40.599Z,100150.81
2022-11-24T02:37:13.973Z,100143.06
2022-11-24T02:39:46.708Z,100153.97
2022-11-24T02:42:20.969Z,100141.38
2022-11-24T02:44:55.372Z,100146.53
2022-11-24T02:47:28.277Z,100149.28
2022-11-24T02:50:00.943Z,100141.78
2022-11-24T02:52:34.305Z,100147.72
2022-11-24T02:55:07.108Z,100151.22
2022-11-24T02:57:41.513Z,100147.72
2022-11-24T03:00:14.653Z,100159.41
2022-11-24T03:02:47.439Z,100169.59
2022-11-24T03:05:20.150Z,100178.66
2022-11-24T03:07:53.307Z,100188.06
2022-11-24T03:10:26.356Z,100185.28
2022-11-24T03:13:00.600Z,100186.44
2022-11-24T03:15:33.399Z,100186.06
2022-11-24T03:18:06.273Z,100195.13
2022-11-24T03:20:39.177Z,100204.75
2022-11-24T03:23:12.200Z,100205.09
2022-11-24T03:25:45.131Z,100217.28
2022-11-24T03:28:19.254Z,100216.50
2022-11-24T03:30:52.133Z,100213.38
2022-11-24T03:33:25.196Z,100212.69
2022-11-24T03:35:58.215Z,100227.50
2022-11-24T03:38:31.375Z,100235.31
2022-11-24T03:41:04.382Z,100237.25
2022-11-24T03:43:44.061Z,100234.53
2022-11-24T03:46:20.047Z,100244.69
2022-11-24T03:48:53.060Z,100244.69
2022-11-24T03:51:25.992Z,100254.72
2022-11-24T03:54:01.567Z,100257.66
2022-11-24T03:56:34.340Z,100271.59
2022-11-24T03:59:08.811Z,100278.25
2022-11-24T04:01:41.593Z,100282.53
2022-11-24T04:04:14.608Z,100283.78
2022-11-24T04:06:47.588Z,100295.16
2022-11-24T04:09:20.517Z,100297.44
2022-11-24T04:12:18.989Z,100306.44
2022-11-24T04:14:53.104Z,100307.19
2022-11-24T04:17:25.710Z,100306.38
2022-11-24T04:19:58.546Z,100309.50
2022-11-24T04:22:31.308Z,100318.53
2022-11-24T04:25:06.451Z,100311.91
2022-11-24T04:27:39.540Z,100324.88
2022-11-24T04:30:13.812Z,100324.09
2022-11-24T04:32:46.731Z,100328.72
2022-11-24T04:35:25.222Z,100333.09
2022-11-24T04:37:57.921Z,100328.41
2022-11-24T04:40:31.199Z,100334.59
2022-11-24T04:43:03.928Z,100346.38
2022-11-24T04:45:38.461Z,100342.50
2022-11-24T04:48:11.130Z,100342.41
2022-11-24T04:50:44.339Z,100349.09
2022-11-24T04:53:17.159Z,100350.63
2022-11-24T04:55:50.724Z,100353.31
2022-11-24T04:58:23.414Z,100360.06
2022-11-24T05:00:57.768Z,100358.88
2022-11-24T05:03:30.712Z,100362.69
2022-11-24T05:06:09.265Z,100370.56
2022-11-24T05:08:42.702Z,100376.09
2022-11-24T05:11:15.439Z,100379.91
2022-11-24T05:13:48.284Z,100383.06
2022-11-24T05:16:22.749Z,100392.41
2022-11-24T05:18:55.735Z,100392.03
2022-11-24T05:21:28.832Z,100397.50
2022-11-24T05:24:01.507Z,100392.31
2022-11-24T05:26:35.615Z,100397.03
2022-11-24T05:29:08.629Z,100402.13
2022-11-24T05:31:42.787Z,100401.88
2022-11-24T05:34:16.003Z,100401.25
2022-11-24T05:36:54.800Z,100404.88
2022-11-24T05:39:27.435Z,100401.81
2022-11-24T05:42:00.087Z,100405.59
2022-11-24T05:44:33.028Z,100404.00
2022-11-24T05:47:07.539Z,100412.66
2022-11-24T05:49:40.206Z,100410.78
2022-11-24T05:52:12.859Z,100409.13
2022-11-24T05:54:45.568Z,100430.56
2022-11-24T05:57:18.623Z,100437.69
2022-11-24T05:59:54.001Z,100440.78
2022-11-24T06:02:28.602Z,100438.53
2022-11-24T06:05:01.265Z,100439.94
2022-11-24T06:07:34.389Z,100441.47
2022-11-24T06:10:07.163Z,100450.25
2022-11-24T06:12:39.953Z,100454.19
2022-11-24T06:15:13.131Z,100461.97
2022-11-24T06:17:53.093Z,100468.56
2022-11-24T06:20:32.261Z,100472.13
2022-11-24T06:23:05.729Z,100466.13
2022-11-24T06:25:38.414Z,100465.81
2022-11-24T06:28:10.997Z,100471.25
2022-11-24T06:30:43.707Z,100468.97
2022-11-24T06:33:17.972Z,100489.34
2022-11-24T06:35:50.793Z,100491.59
2022-11-24T06:38:26.531Z,100490.16
2022-11-24T06:41:02.481Z,100494.34
2022-11-24T06:43:36.118Z,100493.97
2022-11-24T06:46:09.092Z,100514.75
2022-11-24T06:48:43.818Z,100525.25
2022-11-24T06:51:18.944Z,100527.69
2022-11-24T06:53:51.835Z,100528.72
2022-11-24T06:56:25.441Z,100534.59
2022-11-24T06:59:01.550Z,100539.78
2022-11-24T07:01:38.303Z,100538.94
2022-11-24T07:04:12.693Z,100543.28
2022-11-24T07:06:49.041Z,100548.75
2022-11-24T07:09:24.788Z,100553.44
2022-11-24T07:11:59.475Z,100566.66
2022-11-24T07:14:33.054Z,100565.16
2022-11-24T07:17:07.617Z,100565.88
2022-11-24T07:19:43.423Z,100572.88
2022-11-24T07:22:16.651Z,100575.13
2022-11-24T07:24:50.131Z,100583.75
2022-11-24T07:27:23.052Z,100585.31
2022-11-24T07:30:20.620Z,100589.22
2022-11-24T07:32:56.170Z,100598.19
2022-11-24T07:35:30.849Z,100611.09
2022-11-24T07:38:04.102Z,100623.53
2022-11-24T07:40:36.742Z,100615.88
2022-11-24T07:43:09.578Z,100615.41
2022-11-24T07:45:43.913Z,100626.13
2022-11-24T07:48:16.701Z,100628.38
2022-11-24T07:50:55.559Z,100638.03
2022-11-24T07:53:28.939Z,100636.84
2022-11-24T07:56:02.732Z,100637.63
2022-11-24T07:58:36.230Z,100651.69
2022-11-24T08:01:13.210Z,100653.66
2022-11-24T08:03:46.450Z,100655.88
2022-11-24T08:06:26.539Z,100661.50
2022-11-24T08:09:01.491Z,100663.41
2022-11-24T08:11:35.497Z,100663.41
2022-11-24T08:14:08.144Z,100673.06
2022-11-24T08:16:40.800Z,100666.25
2022-11-24T08:19:13.587Z,100664.50
2022-11-24T08:21:47.805Z,100670.50
2022-11-24T08:24:20.404Z,100682.47
2022-11-24T08:26:53.056Z,100682.91
2022-11-24T08:29:28.564Z,100689.28
2022-11-24T08:32:01.333Z,100689.97
2022-11-24T08:34:34.308Z,100691.72
2022-11-24T08:37:08.695Z,100696.66
2022-11-24T08:39:41.240Z,100694.41
2022-11-24T08:42:13.838Z,100704.13
2022-11-24T08:44:46.342Z,100707.72
2022-11-24T08:47:19.190Z,100713.69
2022-11-24T08:49:51.734Z,100725.66
2022-11-24T08:52:25.848Z,100730.94
2022-11-24T08:54:58.631Z,100729.78
2022-11-24T08:57:31.363Z,100723.88
2022-11-24T09:00:04.484Z,100734.91
2022-11-24T09:02:37.968Z,100734.16
2022-11-24T09:05:43.212Z,100738.31
2022-11-24T09:08:05.067Z,100755.78
2022-11-24T09:10:38.276Z,100751.47
2022-11-24T09:13:11.272Z,100756.19
2022-11-24T09:15:44.016Z,100762.50
2022-11-24T09:18:16.664Z,100767.25
2022-11-24T09:20:49.369Z,100772.63
2022-11-24T09:23:23.716Z,100773.91
2022-11-24T09:25:56.416Z,100778.03
2022-11-24T09:28:29.310Z,100776.22
2022-11-24T09:31:02.637Z,100788.13
2022-11-24T09:33:35.812Z,100784.41
2022-11-24T09:36:10.435Z,100786.81
2022-11-24T09:38:44.653Z,100797.16
2022-11-24T09:41:33.732Z,100808.22
2022-11-24T09:44:09.608Z,100807.97
2022-11-24T09:46:48.928Z,100813.38
2022-11-24T09:49:27.276Z,100821.78
2022-11-24T09:52:03.914Z,100823.88
2022-11-24T09:54:39.134Z,100834.50
2022-11-24T09:57:12.872Z,100830.59
2022-11-24T09:59:45.751Z,100840.69
2022-11-24T10:02:18.303Z,100841.56
2022-11-24T10:04:52.563Z,100845.66
2022-11-24T10:07:29.209Z,100846.41
2022-11-24T10:10:05.164Z,100832.03
2022-11-24T10:12:46.485Z,100841.78
2022-11-24T10:15:29.945Z,100841.03
2022-11-24T10:18:16.808Z,100843.13
2022-11-24T10:20:55.123Z,100846.25
2022-11-24T10:23:39.718Z,100853.06
2022-11-24T10:26:17.282Z,100841.72
2022-11-24T10:28:53.240Z,100850.44
2022-11-24T10:31:30.954Z,100851.53
2022-11-24T10:34:07.537Z,100851.88
2022-11-24T10:36:44.967Z,100851.53
2022-11-24T10:39:21.561Z,100850.16
2022-11-24T10:42:01.219Z,100849.84
2022-11-24T10:44:34.316Z,100847.56
2022-11-24T10:47:16.923Z,100851.00
2022-11-24T10:49:54.960Z,100849.84
2022-11-24T10:52:29.478Z,100848.34
2022-11-24T10:55:04.183Z,100851.09
2022-11-24T10:57:40.086Z,100855.88
2022-11-24T11:00:33.007Z,100852.78
2022-11-24T11:03:13.311Z,100850.50
2022-11-24T11:05:49.038Z,100849.72
2022-11-24T11:08:25.159Z,100849.25
2022-11-24T11:11:14.097Z,100855.22
2022-11-24T11:14:01.621Z,100856.84
2022-11-24T11:16:38.007Z,100864.78
2022-11-24T11:19:47.853Z,100856.22
2022-11-24T11:22:23.445Z,100857.31
2022-11-24T11:25:07.803Z,100859.84
2022-11-24T11:27:41.094Z,100854.75
2022-11-24T11:36:14.849Z,100857.97
2022-11-24T11:38:48.154Z,100861.09
2022-11-24T11:41:22.937Z,100859.19
2022-11-24T11:43:59.830Z,100845.47
2022-11-24T11:46:37.087Z,100847.84
2022-11-24T11:49:12.075Z,100853.72
2022-11-24T11:52:05.061Z,100853.72
2022-11-24T11:54:49.049Z,100851.28
2022-11-24T11:57:27.658Z,100852.88
2022-11-24T12:00:06.276Z,100849.78
2022-11-24T12:02:53.317Z,100852.88
2022-11-24T12:05:31.603Z,100842.72
2022-11-24T12:08:20.731Z,100848.53
2022-11-24T12:10:59.933Z,100852.78
2022-11-24T12:13:45.174Z,100859.88
2022-11-24T12:16:27.727Z,100868.06
2022-11-24T12:19:08.380Z,100866.44
2022-11-24T12:21:44.728Z,100867.28
2022-11-24T12:24:19.925Z,100873.50
2022-11-24T12:26:55.337Z,100878.19
2022-11-24T12:29:47.179Z,100885.91
2022-11-24T12:32:27.211Z,100887.53
2022-11-24T12:35:04.412Z,100884.38
2022-11-24T12:37:43.192Z,100883.50
2022-11-24T12:40:18.910Z,100888.22
2022-11-24T12:42:58.609Z,100888.63
2022-11-24T12:45:35.139Z,100893.03
2022-11-24T12:48:23.545Z,100885.91
2022-11-24T12:50:59.469Z,100875.63
2022-11-24T12:53:33.539Z,100883.53
2022-11-24T12:56:07.206Z,100879.53
2022-11-24T12:58:42.749Z,100872.53
2022-11-24T13:01:19.904Z,100879.91
2022-11-24T13:04:01.408Z,100867.53
2022-11-24T13:06:44.443Z,100870.47
2022-11-24T13:09:20.256Z,100862.31
2022-11-24T13:11:53.572Z,100869.41
2022-11-24T13:14:29.737Z,100861.53
2022-11-24T13:17:28.642Z,100866.22
2022-11-24T13:20:14.726Z,100847.44
2022-11-24T13:22:49.837Z,100852.88
2022-11-24T13:25:23.482Z,100844.94
2022-11-24T13:27:59.654Z,100845.25
2022-11-24T13:30:49.920Z,100847.34
2022-11-24T13:33:43.419Z,100848.78
2022-11-24T13:36:31.025Z,100845.25
2022-11-24T13:39:06.225Z,100853.47
2022-11-24T13:41:53.783Z,100840.59
2022-11-24T13:44:26.457Z,100836.63
2022-11-24T13:47:05.120Z,100829.22
2022-11-24T13:49:39.260Z,100828.47
2022-11-24T13:52:30.276Z,100832.38
2022-11-24T13:55:11.261Z,100832.88
2022-11-24T13:57:45.042Z,100834.88
2022-11-24T14:00:20.177Z,100831.66
2022-11-24T14:02:54.121Z,100830.91
2022-11-24T14:05:31.939Z,100832.22
2022-11-24T14:08:06.119Z,100844.47
2022-11-24T14:10:42.321Z,100834.25
2022-11-24T14:13:19.156Z,100846.81
2022-11-24T14:16:00.500Z,100838.97
2022-11-24T14:18:33.845Z,100835.69
2022-11-24T14:21:16.963Z,100829.50
2022-11-24T14:23:51.080Z,100828.69
2022-11-24T14:26:27.992Z,100823.16
2022-11-24T14:29:05.168Z,100823.91
2022-11-24T14:31:37.860Z,100821.81
2022-11-24T14:34:17.802Z,100811.31
2022-11-24T14:36:50.836Z,100816.81
2022-11-24T14:39:24.124Z,100818.41
2022-11-24T14:42:00.671Z,100812.06
2022-11-24T14:44:36.233Z,100811.66
2022-11-24T14:47:15.976Z,100808.84
2022-11-24T14:49:48.562Z,100808.38
2022-11-24T14:52:24.802Z,100806.75
2022-11-24T14:55:07.550Z,100814.09
2022-11-24T14:57:51.596Z,100804.69
2022-11-24T15:00:28.423Z,100803.84
2022-11-24T15:03:17.090Z,100802.63
2022-11-24T15:05:54.414Z,100802.16
2022-11-24T15:08:28.898Z,100801.34
2022-11-24T15:11:02.148Z,100801.34
2022-11-24T15:13:38.510Z,100792.72
2022-11-24T15:16:16.831Z,100793.84
2022-11-24T15:18:51.525Z,100796.97
2022-11-24T15:21:31.231Z,100790.38
2022-11-24T15:24:08.097Z,100794.94
2022-11-24T15:26:42.285Z,100794.19
2022-11-24T15:29:17.035Z,100788.66
2022-11-24T15:31:52.835Z,100790.94
2022-11-24T15:34:25.747Z,100788.25
2022-11-24T15:36:58.302Z,100790.19
2022-11-24T15:39:30.988Z,100796.31
2022-11-24T15:42:03.704Z,100789.31
2022-11-24T15:44:37.922Z,100786.41
2022-11-24T15:47:10.701Z,100786.72
2022-11-24T15:49:43.851Z,100787.50
2022-11-24T15:52:18.529Z,100779.22
2022-11-24T15:54:55.306Z,100783.53
2022-11-24T15:57:30.860Z,100794.31
2022-11-24T16:00:08.565Z,100794.94
2022-11-24T16:02:45.110Z,100804.16
2022-11-24T16:05:18.616Z,100802.41
2022-11-24T16:07:51.855Z,100799.97
2022-11-24T16:10:29.695Z,100794.28
2022-11-24T16:13:02.815Z,100801.69
2022-11-24T16:15:41.144Z,100802.00
2022-11-24T16:18:14.778Z,100800.69
2022-11-24T16:20:47.886Z,100807.00
2022-11-24T16:23:21.431Z,100810.75
2022-11-24T16:25:54.053Z,100817.50
2022-11-24T16:28:26.957Z,100805.91
2022-11-24T16:31:03.852Z,100812.13
2022-11-24T16:33:40.542Z,100813.66
2022-11-24T16:36:17.670Z,100817.09
2022-11-24T16:38:50.521Z,100816.78
2022-11-24T16:41:23.326Z,100812.59
2022-11-24T16:43:56.167Z,100813.69
2022-11-24T16:46:30.588Z,100805.72
2022-11-24T16:49:03.606Z,100806.22
2022-11-24T16:51:36.483Z,100809.81
2022-11-24T16:54:09.801Z,100802.31
2022-11-24T16:56:47.497Z,100803.78
2022-11-24T16:59:22.829Z,100797.94
2022-11-24T17:01:58.022Z,100792.94
2022-11-24T17:04:35.734Z,100795.00
2022-11-24T17:07:09.146Z,100792.47
2022-11-24T17:09:50.884Z,100795.13
2022-11-24T17:12:24.491Z,100792.84
2022-11-24T17:15:31.119Z,100796.59
2022-11-24T17:18:22.838Z,100795.47
2022-11-24T17:20:55.995Z,100784.47
2022-11-24T17:23:34.457Z,100776.53
2022-11-24T17:26:08.819Z,100776.53
2022-11-24T17:28:41.940Z,100780.63
2022-11-24T17:31:21.111Z,100777.19
2022-11-24T17:33:56.350Z,100787.94
2022-11-24T17:36:29.693Z,100772.31
2022-11-24T17:39:04.399Z,100775.25
2022-11-24T17:41:37.117Z,100770.19
2022-11-24T17:44:10.787Z,100774.56
2022-11-24T17:46:43.562Z,100767.03
2022-11-24T17:49:24.261Z,100771.88
2022-11-24T17:51:56.983Z,100769.00
2022-11-24T17:54:50.001Z,100779.38
2022-11-24T17:57:22.997Z,100779.25
2022-11-24T17:59:57.447Z,100766.34
2022-11-24T18:02:34.811Z,100763.53
2022-11-24T18:05:09.794Z,100760.28
2022-11-24T18:07:42.718Z,100763.44
2022-11-24T18:10:15.768Z,100774.47
2022-11-24T18:12:48.517Z,100766.66
2022-11-24T18:15:21.553Z,100768.91
2022-11-24T18:17:54.713Z,100768.91
2022-11-24T18:20:29.540Z,100773.66
2022-11-24T18:23:06.368Z,100764.59
2022-11-24T18:25:39.020Z,100770.59
2022-11-24T18:28:11.666Z,100760.28
2022-11-24T18:30:44.312Z,100759.59
2022-11-24T18:33:17.354Z,100762.72
2022-11-24T18:36:00.035Z,100752.00
2022-11-24T18:38:35.795Z,100747.66
2022-11-24T18:41:09.146Z,100750.38
2022-11-24T18:43:44.843Z,100759.75
2022-11-24T18:46:18.220Z,100758.63
2022-11-24T18:48:52.019Z,100753.63
2022-11-24T18:51:27.131Z,100757.94
2022-11-24T18:54:00.174Z,100745.31
2022-11-24T18:56:33.172Z,100751.66
2022-11-24T18:59:05.744Z,100749.50
2022-11-24T19:01:38.839Z,100741.41
2022-11-24T19:04:12.796Z,100751.16
2022-11-24T19:06:49.196Z,100752.25
2022-11-24T19:09:25.903Z,100744.38
2022-11-24T19:12:11.683Z,100744.78
2022-11-24T19:14:46.325Z,100752.63
2022-11-24T19:17:24.029Z,100749.16
2022-11-24T19:19:57.086Z,100741.31
2022-11-24T19:22:34.329Z,100732.63
2022-11-24T19:25:08.139Z,100739.00
2022-11-24T19:27:41.227Z,100724.53
2022-11-24T19:30:19.848Z,100736.97
2022-11-24T19:32:52.710Z,100730.22
2022-11-24T19:35:25.724Z,100730.13
2022-11-24T19:38:02.242Z,100726.72
2022-11-24T19:40:36.462Z,100730.34
2022-11-24T19:43:09.891Z,100720.28
2022-11-24T19:45:44.533Z,100722.56
2022-11-24T19:48:17.630Z,100720.13
2022-11-24T19:50:50.304Z,100722.47
2022-11-24T19:53:24.517Z,100720.94
2022-11-24T19:56:03.513Z,100718.56
2022-11-24T19:58:39.380Z,100719.75
2022-11-24T20:01:13.148Z,100727.50
2022-11-24T20:03:49.465Z,100719.38
2022-11-24T20:06:25.163Z,100716.66
2022-11-24T20:09:00.655Z,100725.72
2022-11-24T20:11:33.395Z,100723.97
2022-11-24T20:14:09.905Z,100716.97
2022-11-24T20:16:46.654Z,100731.19
2022-11-24T20:19:21.692Z,100726.44
2022-11-24T20:21:56.064Z,100726.50
2022-11-24T20:24:30.725Z,100729.72
2022-11-24T20:27:06.053Z,100722.13
2022-11-24T20:29:46.640Z,100721.13
2022-11-24T20:32:20.755Z,100735.03
2022-11-24T20:34:53.491Z,100728.41
2022-11-24T20:37:29.495Z,100734.16
2022-11-24T20:40:07.086Z,100737.84
2022-11-24T20:42:39.905Z,100736.72
2022-11-24T20:45:17.378Z,100725.66
2022-11-24T20:47:52.268Z,100728.03
2022-11-24T20:50:25.273Z,100732.03
2022-11-24T20:52:58.140Z,100730.41
2022-11-24T20:55:33.843Z,100732.78
2022-11-24T20:58:06.963Z,100737.41
2022-11-24T21:00:39.977Z,100735.53
2022-11-24T21:03:12.932Z,100724.56
2022-11-24T21:05:45.551Z,100737.59
2022-11-24T21:08:19.320Z,100730.75
2022-11-24T21:10:57.099Z,100729.09
2022-11-24T21:13:30.126Z,100736.13
2022-11-24T21:16:11.822Z,100721.94
2022-11-24T21:18:44.799Z,100719.69
2022-11-24T21:21:18.712Z,100722.91
2022-11-24T21:23:51.692Z,100726.81
2022-11-24T21:26:25.722Z,100726.22
2022-11-24T21:28:58.731Z,100729.94
2022-11-24T21:31:31.350Z,100735.16
2022-11-24T21:34:04.150Z,100724.22
2022-11-24T21:36:40.652Z,100733.19
2022-11-24T21:39:13.906Z,100725.75
2022-11-24T21:41:48.247Z,100724.66
2022-11-24T21:44:20.881Z,100726.16
2022-11-24T21:46:56.063Z,100729.97
2022-11-24T21:49:28.855Z,100737.09
2022-11-24T21:52:01.445Z,100735.53
2022-11-24T21:54:34.496Z,100730.25
2022-11-24T21:57:08.730Z,100738.56
2022-11-24T21:59:41.295Z,100737.31
2022-11-24T22:02:13.915Z,100724.78
2022-11-24T22:04:46.647Z,100717.31
2022-11-24T22:07:19.273Z,100712.94
2022-11-24T22:09:51.852Z,100723.25
2022-11-24T22:12:25.883Z,100714.50
2022-11-24T22:14:58.393Z,100715.47
2022-11-24T22:17:33.285Z,100716.84
2022-11-24T22:20:06.868Z,100718.81
2022-11-24T22:22:41.884Z,100706.78
2022-11-24T22:25:14.870Z,100712.28
2022-11-24T22:27:49.661Z,100710.31
2022-11-24T22:30:22.311Z,100707.88
2022-11-24T22:32:55.113Z,100718.41
2022-11-24T22:35:28.028Z,100717.34
2022-11-24T22:38:00.654Z,100714.94
2022-11-24T22:40:33.244Z,100723.16
2022-11-24T22:43:07.405Z,100718.22
2022-11-24T22:45:40.039Z,100716.97
2022-11-24T22:48:12.703Z,100712.28
2022-11-24T22:50:45.206Z,100695.50
2022-11-24T22:53:17.815Z,100709.22
2022-11-24T22:55:50.720Z,100703.81
2022-11-24T22:58:24.848Z,100706.91
2022-11-24T23:00:57.539Z,100711.22
2022-11-24T23:03:30.220Z,100706.84
2022-11-24T23:06:03.180Z,100705.34
2022-11-24T23:08:36.657Z,100704.06
2022-11-24T23:11:10.083Z,100702.28
2022-11-24T23:13:44.704Z,100699.47
2022-11-24T23:16:18.203Z,100696.03
2022-11-24T23:18:53.908Z,100698.44
2022-11-24T23:21:27.740Z,100687.06
2022-11-24T23:24:09.454Z,100690.59
2022-11-24T23:26:42.647Z,100696.88
2022-11-24T23:29:17.028Z,100694.53
2022-11-24T23:31:49.805Z,100690.19
2022-11-24T23:34:22.412Z,100697.66
2022-11-24T23:36:54.978Z,100699.78
2022-11-24T23:39:27.585Z,100697.19
2022-11-24T23:42:00.126Z,100691.72
2022-11-24T23:44:34.531Z,100691.34
2022-11-24T23:47:07.282Z,100710.28
2022-11-24T23:49:40.007Z,100697.97
2022-11-24T23:52:12.630Z,100713.66
2022-11-24T23:54:45.578Z,100713.97
2022-11-24T23:57:18.432Z,100715.69
2022-11-24T23:59:52.416Z,100716.88
